Time;durP1;ratioP1;P1;durP2;ratioP2;P2;SDS_P1;SDS_P2;PMS_P1;PMS_P2;Temp;Humidity;BMP_temperature;BMP_pressure;BME280_temperature;BME280_humidity;BME280_pressure;Samples;Min_cycle;Max_cycle;Signal;HPM_P1;HPM_P2
2021/03/23 00:00:39;;;;;;;;;;;;;;;-144.01;100.00;62166.59;5099898;28;19912;-68
2021/03/23 00:03:07;;;;;;;;;;;;;;;-144.01;100.00;62166.59;5099577;28;19923;-68
2021/03/23 00:05:34;;;;;;;;;;;;;;;-144.01;100.00;62166.59;5097988;28;19919;-68
2021/03/23 00:08:03;;;;;;;;;;;;;;;-144.01;100.00;62166.59;5099953;28;19916;-68
2021/03/23 00:10:30;;;;;;;;;;;;;;;-144.01;100.00;62166.59;5099735;28;20369;-69
2021/03/23 00:12:57;;;;;;;;;;;;;;;-144.01;100.00;62166.59;5099624;28;19912;-68
2021/03/23 00:15:24;;;;;;;;;;;;;;;-144.01;100.00;62166.59;5098133;28;20218;-68
2021/03/23 00:17:51;;;;;;;;;;;;;;;-144.01;100.00;62166.59;5098869;28;19923;-69
2021/03/23 00:20:21;;;;;;;;;;;;;;;-144.01;100.00;62166.59;5099559;28;19911;-68
2021/03/23 00:22:48;;;;;;;;;;;;;;;-144.01;100.00;62166.59;5081599;28;19923;-69
2021/03/23 00:25:15;;;;;;;;;;;;;;;-144.01;100.00;62166.59;5088693;28;19916;-69
2021/03/23 00:27:42;;;;;;;;;;;;;;;-144.01;100.00;62166.59;5077833;28;19919;-69
2021/03/23 00:30:10;;;;;;;;;;;;;;;-144.01;100.00;62166.59;5079081;28;19916;-70
2021/03/23 00:32:37;;;;;;;;;;;;;;;-144.01;100.00;62166.59;5079170;28;20612;-69
2021/03/23 00:35:05;;;;;;;;;;;;;;;-144.01;100.00;62166.59;5079025;28;19943;-68
2021/03/23 00:37:33;;;;;;;;;;;;;;;-144.01;100.00;62166.59;5078713;28;20223;-68
2021/03/23 00:39:59;;;;;;;;;;;;;;;-144.01;100.00;62166.59;5079243;28;19923;-68
2021/03/23 00:42:26;;;;;;;;;;;;;;;-144.01;100.00;62166.59;5057747;28;19940;-68
2021/03/23 00:44:53;;;;;;;;;;;;;;;-144.01;100.00;62166.59;5066891;28;19924;-68
2021/03/23 00:47:20;;;;;;;;;;;;;;;-144.01;100.00;62166.59;5058654;28;19920;-68
2021/03/23 00:49:47;;;;;;;;;;;;;;;-144.01;100.00;62166.59;5078753;28;19924;-68
2021/03/23 00:52:14;;;;;;;;;;;;;;;-144.01;100.00;62166.59;5078249;28;19939;-68
2021/03/23 00:54:41;;;;;;;;;;;;;;;-144.01;100.00;62166.59;5077820;28;19920;-68
2021/03/23 00:57:08;;;;;;;;;;;;;;;-144.01;100.00;62166.59;5078347;28;19912;-69
2021/03/23 00:59:35;;;;;;;;;;;;;;;-144.01;100.00;62166.59;5078463;28;19916;-68
2021/03/23 01:02:02;;;;;;;;;;;;;;;-144.01;100.00;62166.59;5078583;28;19916;-69
2021/03/23 01:04:29;;;;;;;;;;;;;;;-144.01;100.00;62166.59;5078270;28;19924;-68
2021/03/23 01:06:56;;;;;;;;;;;;;;;-144.01;100.00;62166.59;5077527;28;19916;-69
2021/03/23 01:09:23;;;;;;;;;;;;;;;-144.01;100.00;62166.59;5078029;28;19916;-69
2021/03/23 01:11:50;;;;;;;;;;;;;;;-144.01;100.00;62166.59;5077596;28;19916;-69
2021/03/23 01:14:18;;;;;;;;;;;;;;;-144.01;100.00;62166.59;5077057;28;19924;-69
2021/03/23 01:16:45;;;;;;;;;;;;;;;-144.01;100.00;62166.59;5077690;28;19923;-69
2021/03/23 01:19:12;;;;;;;;;;;;;;;-144.01;100.00;62166.59;5092991;28;19935;-68
2021/03/23 01:21:39;;;;;;;;;;;;;;;-144.01;100.00;62166.59;5097856;28;19916;-68
2021/03/23 01:24:06;;;;;;;;;;;;;;;-144.01;100.00;62166.59;5097678;28;19912;-69
2021/03/23 01:26:33;;;;;;;;;;;;;;;-144.01;100.00;62166.59;5097548;28;19912;-69
2021/03/23 01:29:00;;;;;;;;;;;;;;;-144.01;100.00;62166.59;5097102;28;19916;-68
2021/03/23 01:31:27;;;;;;;;;;;;;;;-144.01;100.00;62166.59;5097505;28;20234;-69
2021/03/23 01:33:54;;;;;;;;;;;;;;;-144.01;100.00;62166.59;5096951;28;19919;-69
2021/03/23 01:36:21;;;;;;;;;;;;;;;-144.01;100.00;62166.59;5096721;28;19923;-69
2021/03/23 01:38:48;;;;;;;;;;;;;;;-144.01;100.00;62166.59;5097465;28;19919;-69
2021/03/23 01:41:15;;;;;;;;;;;;;;;-144.01;100.00;62166.59;5097692;28;19919;-70
2021/03/23 01:43:42;;;;;;;;;;;;;;;-144.01;100.00;62166.59;5091259;28;19923;-69
2021/03/23 01:46:27;;;;;;;;;;;;;;;-144.01;100.00;62166.59;5077431;28;20243;-70
2021/03/23 01:48:54;;;;;;;;;;;;;;;-144.01;100.00;62166.59;5077049;28;20226;-69
2021/03/23 01:51:21;;;;;;;;;;;;;;;-144.01;100.00;62166.59;5077299;28;19916;-71
2021/03/23 01:53:48;;;;;;;;;;;;;;;-144.01;100.00;62166.59;5077239;28;19912;-69
2021/03/23 01:56:15;;;;;;;;;;;;;;;-144.01;100.00;62166.59;5059375;28;19919;-69
2021/03/23 01:58:48;;;;;;;;;;;;;;;-144.01;100.00;62166.59;5076978;28;19912;-69
2021/03/23 02:01:17;;;;;;;;;;;;;;;-144.01;100.00;62166.59;5059302;28;20307;-69
2021/03/23 02:03:43;;;;;;;;;;;;;;;-144.01;100.00;62166.59;5076974;28;19979;-69
2021/03/23 02:06:32;;;;;;;;;;;;;;;-144.01;100.00;62166.59;5059601;28;19920;-69
2021/03/23 02:09:00;;;;;;;;;;;;;;;-144.01;100.00;62166.59;5076760;28;19912;-69
2021/03/23 02:11:27;;;;;;;;;;;;;;;-144.01;100.00;62166.59;5076776;28;19922;-69
2021/03/23 02:13:54;;;;;;;;;;;;;;;-144.01;100.00;62166.59;5068859;28;20259;-68
2021/03/23 02:16:21;;;;;;;;;;;;;;;-144.01;100.00;62166.59;5035948;28;19917;-68
2021/03/23 02:18:48;;;;;;;;;;;;;;;-144.01;100.00;62166.59;5082334;28;19911;-69
2021/03/23 02:21:19;;;;;;;;;;;;;;;-144.01;100.00;62166.59;5095907;28;19918;-69
2021/03/23 02:23:47;;;;;;;;;;;;;;;-144.01;100.00;62166.59;5096836;28;19912;-69
2021/03/23 02:26:15;;;;;;;;;;;;;;;-144.01;100.00;62166.59;5062821;28;19919;-68
2021/03/23 02:28:52;;;;;;;;;;;;;;;-144.01;100.00;62166.59;5065016;28;19928;-69
2021/03/23 02:31:29;;;;;;;;;;;;;;;-144.01;100.00;62166.59;5059878;28;20338;-69
2021/03/23 02:33:57;;;;;;;;;;;;;;;-144.01;100.00;62166.59;5069941;28;20192;-69
2021/03/23 02:36:24;;;;;;;;;;;;;;;-144.01;100.00;62166.59;5076698;28;19916;-69
2021/03/23 02:38:51;;;;;;;;;;;;;;;-144.01;100.00;62166.59;5076425;28;19916;-68
2021/03/23 02:41:18;;;;;;;;;;;;;;;-144.01;100.00;62166.59;5076779;28;20318;-69
2021/03/23 02:43:45;;;;;;;;;;;;;;;-144.01;100.00;62166.59;5058475;28;19916;-69
2021/03/23 02:46:12;;;;;;;;;;;;;;;-144.01;100.00;62166.59;5058961;28;20231;-69
2021/03/23 02:48:39;;;;;;;;;;;;;;;-144.01;100.00;62166.59;5076299;28;20227;-69
2021/03/23 02:51:06;;;;;;;;;;;;;;;-144.01;100.00;62166.59;5076424;28;19923;-70
2021/03/23 02:53:33;;;;;;;;;;;;;;;-144.01;100.00;62166.59;5076231;28;19942;-69
2021/03/23 02:56:00;;;;;;;;;;;;;;;-144.01;100.00;62166.59;5076516;28;19913;-68
2021/03/23 02:58:27;;;;;;;;;;;;;;;-144.01;100.00;62166.59;5076077;28;19919;-69
2021/03/23 03:00:54;;;;;;;;;;;;;;;-144.01;100.00;62166.59;5076540;28;20219;-68
2021/03/23 03:03:21;;;;;;;;;;;;;;;-144.01;100.00;62166.59;5076375;28;20299;-70
2021/03/23 03:05:48;;;;;;;;;;;;;;;-144.01;100.00;62166.59;5076281;28;19917;-69
2021/03/23 03:08:15;;;;;;;;;;;;;;;-144.01;100.00;62166.59;5075712;28;19923;-69
2021/03/23 03:10:41;;;;;;;;;;;;;;;-144.01;100.00;62166.59;5076208;28;20266;-70
2021/03/23 03:13:08;;;;;;;;;;;;;;;-144.01;100.00;62166.59;5075872;28;19912;-69
2021/03/23 03:15:35;;;;;;;;;;;;;;;-144.01;100.00;62166.59;5095245;28;19923;-70
2021/03/23 03:18:02;;;;;;;;;;;;;;;-144.01;100.00;62166.59;5089956;28;20322;-70
2021/03/23 03:20:29;;;;;;;;;;;;;;;-144.01;100.00;62166.59;5076051;28;19916;-68
2021/03/23 03:22:56;;;;;;;;;;;;;;;-144.01;100.00;62166.59;5075742;28;19912;-69
2021/03/23 03:25:23;;;;;;;;;;;;;;;-144.01;100.00;62166.59;5076233;28;19916;-69
2021/03/23 03:27:50;;;;;;;;;;;;;;;-144.01;100.00;62166.59;5075741;28;19916;-70
2021/03/23 03:30:19;;;;;;;;;;;;;;;-144.01;100.00;62166.59;5071893;28;20231;-68
2021/03/23 03:32:46;;;;;;;;;;;;;;;-144.01;100.00;62166.59;5055879;28;19920;-69
2021/03/23 03:35:13;;;;;;;;;;;;;;;-144.01;100.00;62166.59;5055920;28;19919;-69
2021/03/23 03:37:40;;;;;;;;;;;;;;;-144.01;100.00;62166.59;5057661;28;19924;-69
2021/03/23 03:40:08;;;;;;;;;;;;;;;-144.01;100.00;62166.59;5076132;28;19912;-69
2021/03/23 03:42:35;;;;;;;;;;;;;;;-144.01;100.00;62166.59;5075763;28;20299;-68
2021/03/23 03:45:04;;;;;;;;;;;;;;;-144.01;100.00;62166.59;5090006;28;19927;-69
2021/03/23 03:47:31;;;;;;;;;;;;;;;-144.01;100.00;62166.59;5084013;28;19912;-68
2021/03/23 03:49:58;;;;;;;;;;;;;;;-144.01;100.00;62166.59;5065341;28;20299;-53
2021/03/23 03:52:25;;;;;;;;;;;;;;;-144.01;100.00;62166.59;5055001;28;19919;-45
2021/03/23 03:54:52;;;;;;;;;;;;;;;-144.01;100.00;62166.59;5038217;28;20234;-51
2021/03/23 03:57:20;;;;;;;;;;;;;;;-144.01;100.00;62166.59;5055690;28;19919;-44
2021/03/23 03:59:47;;;;;;;;;;;;;;;-144.01;100.00;62166.59;5056454;28;19920;-48
2021/03/23 04:02:14;;;;;;;;;;;;;;;-144.01;100.00;62166.59;5075499;28;20246;-51
2021/03/23 04:04:43;;;;;;;;;;;;;;;-144.01;100.00;62166.59;5075701;28;19924;-53
2021/03/23 04:07:10;;;;;;;;;;;;;;;-144.01;100.00;62166.59;5075584;28;19919;-46
2021/03/23 04:09:37;;;;;;;;;;;;;;;-144.01;100.00;62166.59;5074003;28;19927;-51
2021/03/23 04:12:05;;;;;;;;;;;;;;;-144.01;100.00;62166.59;5075327;28;19916;-61
2021/03/23 04:14:32;;;;;;;;;;;;;;;-144.01;100.00;62166.59;5085165;28;19920;-50
2021/03/23 04:16:59;;;;;;;;;;;;;;;-144.01;100.00;62166.59;5095719;28;19919;-46
2021/03/23 04:19:27;;;;;;;;;;;;;;;-144.01;100.00;62166.59;5080119;28;19912;-53
2021/03/23 04:21:54;;;;;;;;;;;;;;;-144.01;100.00;62166.59;5075284;28;19920;-68
2021/03/23 04:24:21;;;;;;;;;;;;;;;-144.01;100.00;62166.59;5075596;28;19916;-69
2021/03/23 04:26:48;;;;;;;;;;;;;;;-144.01;100.00;62166.59;5066881;28;20231;-70
2021/03/23 04:29:15;;;;;;;;;;;;;;;-144.01;100.00;62166.59;5081706;28;19917;-69
2021/03/23 04:31:43;;;;;;;;;;;;;;;-144.01;100.00;62166.59;5099015;28;19920;-70
2021/03/23 04:34:12;;;;;;;;;;;;;;;-144.01;100.00;62166.59;5098763;28;19912;-69
2021/03/23 04:36:39;;;;;;;;;;;;;;;-144.01;100.00;62166.59;5099103;28;19912;-69
2021/03/23 04:39:11;;;;;;;;;;;;;;;-144.01;100.00;62166.59;5090900;28;19913;-69
2021/03/23 04:41:38;;;;;;;;;;;;;;;-144.01;100.00;62166.59;5058660;28;19917;-70
2021/03/23 04:44:06;;;;;;;;;;;;;;;-144.01;100.00;62166.59;5067324;28;19927;-69
2021/03/23 04:46:33;;;;;;;;;;;;;;;-144.01;100.00;62166.59;5078540;28;19927;-69
2021/03/23 04:49:00;;;;;;;;;;;;;;;-144.01;100.00;62166.59;5078431;28;19923;-69
2021/03/23 04:51:29;;;;;;;;;;;;;;;-144.01;100.00;62166.59;5078163;28;20258;-70
2021/03/23 04:53:59;;;;;;;;;;;;;;;-144.01;100.00;62166.59;5078273;28;19919;-69
2021/03/23 04:56:36;;;;;;;;;;;;;;;-144.01;100.00;62166.59;5078356;28;19913;-70
2021/03/23 04:59:03;;;;;;;;;;;;;;;-144.01;100.00;62166.59;5078102;28;19923;-68
2021/03/23 05:01:30;;;;;;;;;;;;;;;-144.01;100.00;62166.59;5062780;28;19920;-70
2021/03/23 05:03:58;;;;;;;;;;;;;;;-144.01;100.00;62166.59;5058033;28;19920;-58
2021/03/23 05:06:25;;;;;;;;;;;;;;;-144.01;100.00;62166.59;5056499;28;19912;-63
2021/03/23 05:08:52;;;;;;;;;;;;;;;-144.01;100.00;62166.59;5057567;28;19916;-63
2021/03/23 05:11:21;;;;;;;;;;;;;;;-144.01;100.00;62166.59;5040409;28;19924;-57
2021/03/23 05:13:48;;;;;;;;;;;;;;;-144.01;100.00;62166.59;5061748;28;19924;-52
2021/03/23 05:16:15;;;;;;;;;;;;;;;-144.01;100.00;62166.59;5059834;28;19919;-61
2021/03/23 05:18:42;;;;;;;;;;;;;;;-144.01;100.00;62166.59;5057440;28;19986;-47
2021/03/23 05:21:09;;;;;;;;;;;;;;;-144.01;100.00;62166.59;5057309;28;19917;-51
2021/03/23 05:23:36;;;;;;;;;;;;;;;-144.01;100.00;62166.59;5057428;28;19919;-46
2021/03/23 05:26:03;;;;;;;;;;;;;;;-144.01;100.00;62166.59;5070609;28;19915;-48
2021/03/23 05:28:30;;;;;;;;;;;;;;;-144.01;100.00;62166.59;5091892;28;19920;-66
2021/03/23 05:30:57;;;;;;;;;;;;;;;-144.01;100.00;62166.59;5063961;28;19916;-43
2021/03/23 05:33:25;;;;;;;;;;;;;;;-144.01;100.00;62166.59;5057588;28;19912;-47
2021/03/23 05:35:52;;;;;;;;;;;;;;;-144.01;100.00;62166.59;5057662;28;19913;-46
2021/03/23 05:38:19;;;;;;;;;;;;;;;-144.01;100.00;62166.59;5060714;28;19912;-55
2021/03/23 05:40:47;;;;;;;;;;;;;;;-144.01;100.00;62166.59;5057429;28;19913;-49
2021/03/23 05:43:14;;;;;;;;;;;;;;;-144.01;100.00;62166.59;5059075;28;20334;-46
2021/03/23 05:45:42;;;;;;;;;;;;;;;-144.01;100.00;62166.59;5077398;28;20361;-46
2021/03/23 05:48:09;;;;;;;;;;;;;;;-144.01;100.00;62166.59;5062636;28;19913;-58
2021/03/23 05:50:36;;;;;;;;;;;;;;;-144.01;100.00;62166.59;5070257;28;19924;-58
2021/03/23 05:53:04;;;;;;;;;;;;;;;-144.01;100.00;62166.59;5056429;28;19924;-76
2021/03/23 05:55:38;;;;;;;;;;;;;;;-144.01;100.00;62166.59;5056178;28;20223;-61
2021/03/23 05:58:05;;;;;;;;;;;;;;;-144.01;100.00;62166.59;5057697;28;19912;-58
2021/03/23 06:00:36;;;;;;;;;;;;;;;-144.01;100.00;62166.59;5057950;28;20244;-59
2021/03/23 06:03:03;;;;;;;;;;;;;;;-144.01;100.00;62166.59;5047855;28;19921;-59
2021/03/23 06:05:34;;;;;;;;;;;;;;;-144.01;100.00;62166.59;5057347;28;19920;-51
2021/03/23 06:08:03;;;;;;;;;;;;;;;-144.01;100.00;62166.59;5057081;28;19920;-61
2021/03/23 06:10:30;;;;;;;;;;;;;;;-144.01;100.00;62166.59;5077404;28;19927;-58
2021/03/23 06:13:02;;;;;;;;;;;;;;;-144.01;100.00;62166.59;5097164;28;19983;-56
2021/03/23 06:15:53;;;;;;;;;;;;;;;-144.01;100.00;62166.59;5057034;28;19948;-63
2021/03/23 06:18:46;;;;;;;;;;;;;;;-144.01;100.00;62166.59;5039110;28;19913;-59
2021/03/23 06:21:16;;;;;;;;;;;;;;;-144.01;100.00;62166.59;5073873;28;19917;-56
2021/03/23 06:23:55;;;;;;;;;;;;;;;-144.01;100.00;62166.59;5076715;28;19916;-62
2021/03/23 06:26:34;;;;;;;;;;;;;;;-144.01;100.00;62166.59;5050414;28;19919;-62
2021/03/23 06:29:03;;;;;;;;;;;;;;;-144.01;100.00;62166.59;5061975;28;19921;-65
2021/03/23 06:31:43;;;;;;;;;;;;;;;-144.01;100.00;62166.59;5061100;28;20296;-62
2021/03/23 06:34:18;;;;;;;;;;;;;;;-144.01;100.00;62166.59;5055727;28;19912;-56
2021/03/23 06:36:45;;;;;;;;;;;;;;;-144.01;100.00;62166.59;5056609;28;20227;-63
2021/03/23 06:39:12;;;;;;;;;;;;;;;-144.01;100.00;62166.59;5063319;28;19912;-57
2021/03/23 06:42:12;;;;;;;;;;;;;;;-144.01;100.00;62166.59;5076436;28;19916;-51
2021/03/23 06:44:40;;;;;;;;;;;;;;;-144.01;100.00;62166.59;5042333;28;20222;-69
2021/03/23 06:47:27;;;;;;;;;;;;;;;-144.01;100.00;62166.59;5076059;28;20215;-70
2021/03/23 06:49:54;;;;;;;;;;;;;;;-144.01;100.00;62166.59;5076237;28;19913;-69
2021/03/23 06:52:23;;;;;;;;;;;;;;;-144.01;100.00;62166.59;5057807;28;19947;-69
2021/03/23 06:55:16;;;;;;;;;;;;;;;-144.01;100.00;62166.59;5076406;28;19919;-56
2021/03/23 06:57:43;;;;;;;;;;;;;;;-144.01;100.00;62166.59;5073110;28;19923;-62
2021/03/23 07:00:27;;;;;;;;;;;;;;;-144.01;100.00;62166.59;5058522;28;19916;-57
2021/03/23 07:02:55;;;;;;;;;;;;;;;-144.01;100.00;62166.59;5076119;28;19913;-65
2021/03/23 07:05:22;;;;;;;;;;;;;;;-144.01;100.00;62166.59;5075388;28;19919;-65
2021/03/23 07:07:58;;;;;;;;;;;;;;;-144.01;100.00;62166.59;5076241;28;19912;-56
2021/03/23 07:10:36;;;;;;;;;;;;;;;-144.01;100.00;62166.59;5057679;28;19919;-61
2021/03/23 07:13:03;;;;;;;;;;;;;;;-144.01;100.00;62166.59;5055414;28;19920;-61
2021/03/23 07:15:31;;;;;;;;;;;;;;;-144.01;100.00;62166.59;5076184;28;19917;-61
2021/03/23 07:18:04;;;;;;;;;;;;;;;-144.01;100.00;62166.59;5076058;28;19919;-63
2021/03/23 07:20:34;;;;;;;;;;;;;;;-144.01;100.00;62166.59;5073471;28;20261;-58
2021/03/23 07:23:01;;;;;;;;;;;;;;;-144.01;100.00;62166.59;5061152;28;20353;-62
2021/03/23 07:25:30;;;;;;;;;;;;;;;-144.01;100.00;62166.59;5076110;28;20223;-62
2021/03/23 07:28:23;;;;;;;;;;;;;;;-144.01;100.00;62166.59;5054698;28;19943;-47
2021/03/23 07:31:09;;;;;;;;;;;;;;;-144.01;100.00;62166.59;5064072;28;19920;-46
2021/03/23 07:33:36;;;;;;;;;;;;;;;-144.01;100.00;62166.59;5075650;28;19912;-48
2021/03/23 07:36:03;;;;;;;;;;;;;;;-144.01;100.00;62166.59;5075659;28;19916;-51
2021/03/23 07:38:45;;;;;;;;;;;;;;;-144.01;100.00;62166.59;5075291;28;19923;-53
2021/03/23 07:41:24;;;;;;;;;;;;;;;-144.01;100.00;62166.59;5041407;28;19916;-56
2021/03/23 07:44:05;;;;;;;;;;;;;;;-144.01;100.00;62166.59;5064597;28;19923;-48
2021/03/23 07:46:38;;;;;;;;;;;;;;;-144.01;100.00;62166.59;5041488;28;19919;-49
2021/03/23 07:49:14;;;;;;;;;;;;;;;-144.01;100.00;62166.59;5057661;28;19916;-52
2021/03/23 07:51:43;;;;;;;;;;;;;;;-144.01;100.00;62166.59;5075294;28;19916;-56
2021/03/23 07:54:23;;;;;;;;;;;;;;;-144.01;100.00;62166.59;5054286;28;19920;-48
2021/03/23 07:56:53;;;;;;;;;;;;;;;-144.01;100.00;62166.59;5054381;28;19913;-64
2021/03/23 07:59:42;;;;;;;;;;;;;;;-144.01;100.00;62166.59;5062669;28;19912;-58
2021/03/23 08:02:21;;;;;;;;;;;;;;;-144.01;100.00;62166.59;5075250;28;19919;-60
2021/03/23 08:04:52;;;;;;;;;;;;;;;-144.01;100.00;62166.59;5077788;28;20307;-65
2021/03/23 08:07:23;;;;;;;;;;;;;;;-144.01;100.00;62166.59;5061159;28;19916;-57
2021/03/23 08:10:03;;;;;;;;;;;;;;;-144.01;100.00;62166.59;5061093;28;19912;-46
2021/03/23 08:12:33;;;;;;;;;;;;;;;-144.01;100.00;62166.59;5061174;28;19920;-56
2021/03/23 08:15:18;;;;;;;;;;;;;;;-144.01;100.00;62166.59;5075597;28;19917;-57
2021/03/23 08:18:04;;;;;;;;;;;;;;;-144.01;100.00;62166.59;5078730;28;19916;-61
2021/03/23 08:20:46;;;;;;;;;;;;;;;-144.01;100.00;62166.59;5072506;28;19916;-54
2021/03/23 08:23:31;;;;;;;;;;;;;;;-144.01;100.00;62166.59;5078799;28;19917;-60
2021/03/23 08:26:16;;;;;;;;;;;;;;;-144.01;100.00;62166.59;5078885;28;19916;-65
2021/03/23 08:28:49;;;;;;;;;;;;;;;-144.01;100.00;62166.59;5078581;28;20299;-61
2021/03/23 08:31:35;;;;;;;;;;;;;;;-144.01;100.00;62166.59;5079091;28;19916;-61
2021/03/23 08:34:07;;;;;;;;;;;;;;;-144.01;100.00;62166.59;5079042;28;19943;-66
2021/03/23 08:36:52;;;;;;;;;;;;;;;-144.01;100.00;62166.59;5061382;28;19923;-66
2021/03/23 08:39:19;;;;;;;;;;;;;;;-144.01;100.00;62166.59;5054840;28;19920;-65
2021/03/23 08:42:02;;;;;;;;;;;;;;;-144.01;100.00;62166.59;5070704;28;19912;-69
2021/03/23 08:44:34;;;;;;;;;;;;;;;-144.01;100.00;62166.59;5091167;28;19924;-69
2021/03/23 08:47:09;;;;;;;;;;;;;;;-144.01;100.00;62166.59;5072515;28;19920;-68
2021/03/23 08:49:37;;;;;;;;;;;;;;;-144.01;100.00;62166.59;5053632;28;19916;-68
2021/03/23 08:52:05;;;;;;;;;;;;;;;-144.01;100.00;62166.59;5052849;28;19921;-68
2021/03/23 08:54:49;;;;;;;;;;;;;;;-144.01;100.00;62166.59;5056711;28;19920;-67
2021/03/23 08:57:16;;;;;;;;;;;;;;;-144.01;100.00;62166.59;5058777;28;20326;-68
2021/03/23 08:59:47;;;;;;;;;;;;;;;-144.01;100.00;62166.59;5057512;28;19923;-68
2021/03/23 09:02:14;;;;;;;;;;;;;;;-144.01;100.00;62166.59;5058447;28;19913;-68
2021/03/23 09:05:02;;;;;;;;;;;;;;;-144.01;100.00;62166.59;5058495;28;20227;-67
2021/03/23 09:07:30;;;;;;;;;;;;;;;-144.01;100.00;62166.59;5058652;28;19919;-67
2021/03/23 09:09:57;;;;;;;;;;;;;;;-144.01;100.00;62166.59;5067041;28;19912;-68
2021/03/23 09:12:37;;;;;;;;;;;;;;;-144.01;100.00;62166.59;5053169;28;20331;-68
2021/03/23 09:17:38;;;;;;;;;;;;;;;-144.01;100.00;62166.59;5098552;28;19912;-68
2021/03/23 09:20:24;;;;;;;;;;;;;;;-144.01;100.00;62166.59;5098070;28;19916;-69
2021/03/23 09:22:51;;;;;;;;;;;;;;;-144.01;100.00;62166.59;5060939;28;19912;-68
2021/03/23 09:25:23;;;;;;;;;;;;;;;-144.01;100.00;62166.59;5058252;28;20291;-69
2021/03/23 09:27:50;;;;;;;;;;;;;;;-144.01;100.00;62166.59;5057959;28;19920;-68
2021/03/23 09:30:46;;;;;;;;;;;;;;;-144.01;100.00;62166.59;5056635;28;19912;-68
2021/03/23 09:33:22;;;;;;;;;;;;;;;-144.01;100.00;62166.59;5064112;28;19920;-67
2021/03/23 09:36:08;;;;;;;;;;;;;;;-144.01;100.00;62166.59;5077849;28;19920;-67
2021/03/23 09:38:40;;;;;;;;;;;;;;;-144.01;100.00;62166.59;5077022;28;19946;-68
2021/03/23 09:41:08;;;;;;;;;;;;;;;-144.01;100.00;62166.59;5077319;28;19913;-68
2021/03/23 09:43:39;;;;;;;;;;;;;;;-144.01;100.00;62166.59;5059561;28;20314;-68
2021/03/23 09:46:13;;;;;;;;;;;;;;;-144.01;100.00;62166.59;5060092;28;19923;-67
2021/03/23 09:48:46;;;;;;;;;;;;;;;-144.01;100.00;62166.59;5077576;28;20266;-68
2021/03/23 09:51:15;;;;;;;;;;;;;;;-144.01;100.00;62166.59;5056267;28;19927;-70
2021/03/23 09:53:43;;;;;;;;;;;;;;;-144.01;100.00;62166.59;5072595;28;19912;-69
2021/03/23 09:56:20;;;;;;;;;;;;;;;-144.01;100.00;62166.59;5082237;28;19916;-68
2021/03/23 09:58:56;;;;;;;;;;;;;;;-144.01;100.00;62166.59;5056926;28;19920;-69
2021/03/23 10:01:23;;;;;;;;;;;;;;;-144.01;100.00;62166.59;5076974;28;19928;-69
2021/03/23 10:03:51;;;;;;;;;;;;;;;-144.01;100.00;62166.59;5077124;28;20254;-67
2021/03/23 10:06:25;;;;;;;;;;;;;;;-144.01;100.00;62166.59;5076954;28;20325;-68
2021/03/23 10:09:06;;;;;;;;;;;;;;;-144.01;100.00;62166.59;5076921;28;19913;-67
2021/03/23 10:11:38;;;;;;;;;;;;;;;-144.01;100.00;62166.59;5054946;28;19935;-67
2021/03/23 10:14:11;;;;;;;;;;;;;;;-144.01;100.00;62166.59;5074936;28;19916;-67
2021/03/23 10:16:39;;;;;;;;;;;;;;;-144.01;100.00;62166.59;5097093;28;19916;-63
2021/03/23 10:19:11;;;;;;;;;;;;;;;-144.01;100.00;62166.59;5096202;28;19915;-58
2021/03/23 10:21:44;;;;;;;;;;;;;;;-144.01;100.00;62166.59;5096085;28;19916;-68
2021/03/23 10:24:15;;;;;;;;;;;;;;;-144.01;100.00;62166.59;5096916;28;19916;-68
2021/03/23 10:26:46;;;;;;;;;;;;;;;-144.01;100.00;62166.59;5096640;28;19919;-68
2021/03/23 10:29:30;;;;;;;;;;;;;;;-144.01;100.00;62166.59;5096260;28;19920;-58
2021/03/23 10:31:58;;;;;;;;;;;;;;;-144.01;100.00;62166.59;5096897;28;20315;-57
2021/03/23 10:34:26;;;;;;;;;;;;;;;-144.01;100.00;62166.59;5096979;28;19912;-64
2021/03/23 10:36:54;;;;;;;;;;;;;;;-144.01;100.00;62166.59;5096925;28;19919;-67
2021/03/23 10:39:34;;;;;;;;;;;;;;;-144.01;100.00;62166.59;5096810;28;19912;-64
2021/03/23 10:42:18;;;;;;;;;;;;;;;-144.01;100.00;62166.59;5096614;28;19912;-65
2021/03/23 10:44:45;;;;;;;;;;;;;;;-144.01;100.00;62166.59;5081622;28;20322;-64
2021/03/23 10:47:32;;;;;;;;;;;;;;;-144.01;100.00;62166.59;5076617;28;20226;-67
2021/03/23 10:50:15;;;;;;;;;;;;;;;-144.01;100.00;62166.59;5076426;28;20230;-67
2021/03/23 10:52:42;;;;;;;;;;;;;;;-144.01;100.00;62166.59;5076129;28;19923;-66
2021/03/23 10:55:10;;;;;;;;;;;;;;;-144.01;100.00;62166.59;5076529;28;19919;-66
2021/03/23 10:57:39;;;;;;;;;;;;;;;-144.01;100.00;62166.59;5076429;28;19913;-65
2021/03/23 11:00:22;;;;;;;;;;;;;;;-144.01;100.00;62166.59;5058400;28;19912;-64
2021/03/23 11:02:49;;;;;;;;;;;;;;;-144.01;100.00;62166.59;5076288;28;19920;-66
2021/03/23 11:05:17;;;;;;;;;;;;;;;-144.01;100.00;62166.59;5076382;28;19946;-67
2021/03/23 11:08:02;;;;;;;;;;;;;;;-144.01;100.00;62166.59;5066733;28;19916;-66
2021/03/23 11:10:32;;;;;;;;;;;;;;;-144.01;100.00;62166.59;5065324;28;19923;-67
2021/03/23 11:12:59;;;;;;;;;;;;;;;-144.01;100.00;62166.59;5071631;28;19951;-69
2021/03/23 11:15:31;;;;;;;;;;;;;;;-144.01;100.00;62166.59;5096379;28;20241;-67
2021/03/23 11:17:59;;;;;;;;;;;;;;;-144.01;100.00;62166.59;5096382;28;19911;-68
2021/03/23 11:20:28;;;;;;;;;;;;;;;-144.01;100.00;62166.59;5095651;28;19911;-67
2021/03/23 11:22:56;;;;;;;;;;;;;;;-144.01;100.00;62166.59;5085366;28;19924;-66
2021/03/23 11:25:24;;;;;;;;;;;;;;;-144.01;100.00;62166.59;5056059;28;19913;-67
2021/03/23 11:27:52;;;;;;;;;;;;;;;-144.01;100.00;62166.59;5055797;28;20235;-66
2021/03/23 11:30:19;;;;;;;;;;;;;;;-144.01;100.00;62166.59;5055668;28;19988;-68
2021/03/23 11:32:47;;;;;;;;;;;;;;;-144.01;100.00;62166.59;5061151;28;20234;-67
2021/03/23 11:35:14;;;;;;;;;;;;;;;-144.01;100.00;62166.59;5055932;28;19916;-67
2021/03/23 11:37:41;;;;;;;;;;;;;;;-144.01;100.00;62166.59;5055903;28;19917;-65
2021/03/23 11:40:18;;;;;;;;;;;;;;;-144.01;100.00;62166.59;5058962;28;19912;-66
2021/03/23 11:42:46;;;;;;;;;;;;;;;-144.01;100.00;62166.59;5061912;28;19913;-67
2021/03/23 11:45:31;;;;;;;;;;;;;;;-144.01;100.00;62166.59;5096055;28;19946;-67
2021/03/23 11:48:02;;;;;;;;;;;;;;;-144.01;100.00;62166.59;5051885;28;19920;-67
2021/03/23 11:50:30;;;;;;;;;;;;;;;-144.01;100.00;62166.59;5058765;28;20300;-67
2021/03/23 11:52:58;;;;;;;;;;;;;;;-144.01;100.00;62166.59;5046076;28;19916;-67
2021/03/23 11:55:35;;;;;;;;;;;;;;;-144.01;100.00;62166.59;5059864;28;20304;-62
2021/03/23 11:58:04;;;;;;;;;;;;;;;-144.01;100.00;62166.59;5059735;28;19920;-67
2021/03/23 12:00:31;;;;;;;;;;;;;;;-144.01;100.00;62166.59;5059447;28;19920;-64
2021/03/23 12:02:59;;;;;;;;;;;;;;;-144.01;100.00;62166.59;5073336;28;19919;-69
2021/03/23 12:05:26;;;;;;;;;;;;;;;-144.01;100.00;62166.59;5079937;28;20306;-69
2021/03/23 12:08:00;;;;;;;;;;;;;;;-144.01;100.00;62166.59;5079789;28;20303;-69
2021/03/23 12:10:46;;;;;;;;;;;;;;;-144.01;100.00;62166.59;5079169;28;19916;-68
2021/03/23 12:13:12;;;;;;;;;;;;;;;-144.01;100.00;62166.59;5078990;28;19916;-69
2021/03/23 12:15:42;;;;;;;;;;;;;;;-144.01;100.00;62166.59;5079527;28;19924;-69
2021/03/23 12:18:10;;;;;;;;;;;;;;;-144.01;100.00;62166.59;5061703;28;19919;-67
2021/03/23 12:20:38;;;;;;;;;;;;;;;-144.01;100.00;62166.59;5058204;28;20239;-67
2021/03/23 12:23:06;;;;;;;;;;;;;;;-144.01;100.00;62166.59;5059298;28;19924;-68
2021/03/23 12:25:33;;;;;;;;;;;;;;;-144.01;100.00;62166.59;5059479;28;20239;-67
2021/03/23 12:28:00;;;;;;;;;;;;;;;-144.01;100.00;62166.59;5062033;28;19931;-67
2021/03/23 12:30:27;;;;;;;;;;;;;;;-144.01;100.00;62166.59;5078490;28;19923;-67
2021/03/23 12:32:55;;;;;;;;;;;;;;;-144.01;100.00;62166.59;5078621;28;20298;-65
2021/03/23 12:35:24;;;;;;;;;;;;;;;-144.01;100.00;62166.59;5061313;28;19947;-68
2021/03/23 12:37:52;;;;;;;;;;;;;;;-144.01;100.00;62166.59;5063956;28;19939;-66